Time;durP1;ratioP1;P1;durP2;ratioP2;P2;SDS_P1;SDS_P2;PMS_P1;PMS_P2;Temp;Humidity;BMP_temperature;BMP_pressure;BME280_temperature;BME280_humidity;BME280_pressure;Samples;Min_cycle;Max_cycle;Signal;HPM_P1;HPM_P2
2022/05/10 00:01:58;;;;;;;10.23;5.43;;;;;;;;;;5025230;28;20219;-64
2022/05/10 00:04:23;;;;;;;9.80;5.10;;;;;;;;;;5025046;28;20219;-64
2022/05/10 00:06:48;;;;;;;10.68;5.53;;;;;;;;;;5024491;28;20219;-64
2022/05/10 00:09:17;;;;;;;11.23;6.20;;;;;;;;;;5036091;28;20619;-64
2022/05/10 00:11:42;;;;;;;10.18;5.90;;;;;;;;;;5035099;28;20214;-64
2022/05/10 00:14:07;;;;;;;15.32;6.75;;;;;;;;;;5015944;28;20220;-64
2022/05/10 00:16:33;;;;;;;13.93;6.53;;;;;;;;;;5018895;28;20222;-64
2022/05/10 00:18:59;;;;;;;11.45;5.82;;;;;;;;;;5005821;28;20818;-64
2022/05/10 00:21:24;;;;;;;10.18;6.10;;;;;;;;;;5023652;28;20215;-64
2022/05/10 00:23:49;;;;;;;12.07;6.55;;;;;;;;;;5024817;28;20220;-64
2022/05/10 00:26:15;;;;;;;13.38;7.25;;;;;;;;;;5023284;28;20223;-64
2022/05/10 00:28:40;;;;;;;11.50;6.75;;;;;;;;;;5023725;28;20569;-64
2022/05/10 00:31:06;;;;;;;12.55;7.25;;;;;;;;;;5024469;28;20225;-64
2022/05/10 00:33:31;;;;;;;11.57;7.07;;;;;;;;;;4997990;28;20774;-64
2022/05/10 00:35:57;;;;;;;12.35;6.60;;;;;;;;;;5024710;28;20210;-64
2022/05/10 00:38:24;;;;;;;10.18;6.57;;;;;;;;;;5015905;28;20203;-64
2022/05/10 00:40:49;;;;;;;10.52;6.68;;;;;;;;;;5023663;28;20219;-64
2022/05/10 00:43:31;;;;;;;10.50;6.63;;;;;;;;;;5024501;28;20222;-64
2022/05/10 00:45:58;;;;;;;9.38;6.80;;;;;;;;;;5007470;28;20577;-64
2022/05/10 00:48:23;;;;;;;11.73;7.55;;;;;;;;;;5005383;28;20215;-64
2022/05/10 00:50:50;;;;;;;11.35;7.40;;;;;;;;;;5023342;28;20211;-64
2022/05/10 00:53:18;;;;;;;12.35;7.40;;;;;;;;;;5005581;28;20707;-64
2022/05/10 00:55:45;;;;;;;14.05;7.65;;;;;;;;;;5008353;28;20223;-64
2022/05/10 00:58:16;;;;;;;11.15;7.35;;;;;;;;;;4995417;28;20813;-64
2022/05/10 01:00:41;;;;;;;12.88;7.63;;;;;;;;;;5009050;28;20573;-64
2022/05/10 01:03:09;;;;;;;15.48;7.65;;;;;;;;;;5003595;28;20215;-64
2022/05/10 01:05:38;;;;;;;12.68;8.18;;;;;;;;;;5005178;28;20216;-64
2022/05/10 01:08:08;;;;;;;12.93;7.35;;;;;;;;;;5027131;28;20219;-64
2022/05/10 01:10:35;;;;;;;13.38;7.93;;;;;;;;;;5018728;28;20199;-64
2022/05/10 01:13:08;;;;;;;14.57;7.90;;;;;;;;;;5005613;28;20277;-64
2022/05/10 01:15:34;;;;;;;11.52;7.78;;;;;;;;;;5010328;28;20212;-64
2022/05/10 01:17:59;;;;;;;13.75;8.65;;;;;;;;;;5018167;28;20918;-64
2022/05/10 01:20:28;;;;;;;12.75;7.97;;;;;;;;;;5014613;28;20306;-64
2022/05/10 01:22:58;;;;;;;14.65;8.48;;;;;;;;;;5025344;28;20746;-64
2022/05/10 01:25:36;;;;;;;13.90;8.13;;;;;;;;;;5011674;28;20216;-65
2022/05/10 01:28:10;;;;;;;13.55;8.25;;;;;;;;;;5006600;28;20262;-64
2022/05/10 01:30:36;;;;;;;12.85;8.60;;;;;;;;;;5036124;28;21183;-64
2022/05/10 01:35:46;;;;;;;13.32;8.57;;;;;;;;;;5029517;28;20821;-64
2022/05/10 01:38:29;;;;;;;13.45;9.15;;;;;;;;;;5013059;28;20293;-64
2022/05/10 01:40:55;;;;;;;15.82;9.43;;;;;;;;;;5001321;28;20580;-64
2022/05/10 01:43:29;;;;;;;15.93;9.18;;;;;;;;;;5019906;28;20215;-64
2022/05/10 01:45:56;;;;;;;14.18;9.80;;;;;;;;;;5001621;28;20310;-64
2022/05/10 01:48:21;;;;;;;12.77;9.25;;;;;;;;;;5021047;28;20226;-64
2022/05/10 01:50:47;;;;;;;15.55;9.60;;;;;;;;;;5032895;28;20207;-64
2022/05/10 01:53:15;;;;;;;13.50;9.23;;;;;;;;;;5011744;28;20633;-64
2022/05/10 01:55:41;;;;;;;14.00;9.05;;;;;;;;;;5024302;28;20215;-64
2022/05/10 01:58:11;;;;;;;16.08;9.27;;;;;;;;;;5022728;28;20227;-64
2022/05/10 02:00:38;;;;;;;13.50;9.48;;;;;;;;;;5017929;28;20299;-64
2022/05/10 02:03:12;;;;;;;13.35;10.00;;;;;;;;;;5007717;28;20207;-64
2022/05/10 02:05:53;;;;;;;16.85;9.98;;;;;;;;;;5013450;28;20598;-64
2022/05/10 02:08:21;;;;;;;14.50;9.77;;;;;;;;;;5033398;28;20210;-64
2022/05/10 02:10:47;;;;;;;13.13;10.40;;;;;;;;;;5018655;28;20231;-64
2022/05/10 02:13:14;;;;;;;16.05;10.63;;;;;;;;;;5013855;28;20243;-64
2022/05/10 02:15:44;;;;;;;16.83;10.57;;;;;;;;;;5034659;28;20211;-64
2022/05/10 02:18:11;;;;;;;15.98;11.60;;;;;;;;;;5034357;28;20301;-64
2022/05/10 02:20:40;;;;;;;15.93;11.30;;;;;;;;;;5027785;28;20573;-64
2022/05/10 02:23:09;;;;;;;16.30;10.88;;;;;;;;;;5037645;28;20204;-64
2022/05/10 02:25:37;;;;;;;15.35;10.73;;;;;;;;;;5005492;28;20276;-64
2022/05/10 02:28:05;;;;;;;14.35;10.30;;;;;;;;;;5001935;28;20214;-64
2022/05/10 02:30:31;;;;;;;17.67;11.23;;;;;;;;;;5035871;28;20256;-64
2022/05/10 02:33:10;;;;;;;16.95;11.10;;;;;;;;;;5033798;28;20269;-64
2022/05/10 02:35:37;;;;;;;15.70;10.40;;;;;;;;;;5010221;28;20223;-64
2022/05/10 02:38:03;;;;;;;16.33;11.38;;;;;;;;;;5031633;28;20231;-64
2022/05/10 02:40:28;;;;;;;17.10;11.32;;;;;;;;;;5043244;28;20273;-64
2022/05/10 02:42:53;;;;;;;18.30;12.32;;;;;;;;;;5026659;28;20207;-64
2022/05/10 02:45:19;;;;;;;18.70;12.48;;;;;;;;;;5025377;28;20342;-64
2022/05/10 02:47:44;;;;;;;15.82;12.70;;;;;;;;;;5023424;28;20204;-64
2022/05/10 02:50:16;;;;;;;17.75;12.27;;;;;;;;;;5017607;28;20577;-63
2022/05/10 02:52:42;;;;;;;19.05;13.32;;;;;;;;;;5018150;28;20243;-64
2022/05/10 02:55:09;;;;;;;17.15;12.88;;;;;;;;;;5019646;28;20314;-64
2022/05/10 02:57:35;;;;;;;20.42;13.25;;;;;;;;;;5012109;28;20235;-64
2022/05/10 03:00:00;;;;;;;19.30;12.90;;;;;;;;;;5007723;28;20216;-64
2022/05/10 03:02:28;;;;;;;18.33;12.88;;;;;;;;;;5030977;28;20716;-64
2022/05/10 03:04:56;;;;;;;18.73;13.27;;;;;;;;;;5027910;28;20330;-64
2022/05/10 03:07:21;;;;;;;16.77;12.90;;;;;;;;;;5043807;28;20211;-64
2022/05/10 03:09:46;;;;;;;19.45;13.13;;;;;;;;;;5009166;28;20207;-64
2022/05/10 03:12:12;;;;;;;17.83;13.07;;;;;;;;;;5017204;28;20219;-64
2022/05/10 03:14:37;;;;;;;23.50;13.75;;;;;;;;;;5017460;28;20247;-64
2022/05/10 03:17:04;;;;;;;20.80;12.80;;;;;;;;;;5018264;28;20625;-64
2022/05/10 03:19:29;;;;;;;20.90;13.27;;;;;;;;;;5023717;28;20683;-64
2022/05/10 03:21:54;;;;;;;17.42;12.60;;;;;;;;;;5024828;28;20219;-64
2022/05/10 03:24:20;;;;;;;19.42;13.07;;;;;;;;;;5024567;28;20425;-64
2022/05/10 03:26:46;;;;;;;18.35;13.35;;;;;;;;;;5025718;28;20208;-64
2022/05/10 03:29:11;;;;;;;19.77;12.85;;;;;;;;;;5023674;28;20212;-64
2022/05/10 03:31:37;;;;;;;18.80;12.57;;;;;;;;;;5025442;28;20326;-64
2022/05/10 03:36:46;;;;;;;16.27;11.98;;;;;;;;;;5019839;28;20215;-64
2022/05/10 03:39:11;;;;;;;19.42;13.32;;;;;;;;;;5016633;28;20211;-64
2022/05/10 03:41:36;;;;;;;16.85;13.05;;;;;;;;;;5041719;28;20628;-64
2022/05/10 03:44:02;;;;;;;17.63;13.07;;;;;;;;;;5039960;28;20215;-64
2022/05/10 03:46:27;;;;;;;19.88;12.98;;;;;;;;;;5025020;28;20869;-63
2022/05/10 03:48:52;;;;;;;18.50;13.70;;;;;;;;;;5024301;28;20212;-64
2022/05/10 03:51:17;;;;;;;17.35;13.02;;;;;;;;;;5024413;28;20750;-64
2022/05/10 03:53:43;;;;;;;19.88;14.18;;;;;;;;;;5024821;28;20220;-64
2022/05/10 03:56:08;;;;;;;21.05;13.70;;;;;;;;;;5021094;28;20227;-64
2022/05/10 03:58:33;;;;;;;22.23;14.35;;;;;;;;;;5014281;28;20263;-64
2022/05/10 04:00:59;;;;;;;19.58;13.73;;;;;;;;;;5016949;28;20652;-64
2022/05/10 04:03:24;;;;;;;23.27;15.48;;;;;;;;;;5018777;28;20218;-63
2022/05/10 04:05:49;;;;;;;20.60;14.50;;;;;;;;;;5025066;28;20223;-63
2022/05/10 04:08:14;;;;;;;17.75;14.52;;;;;;;;;;5024185;28;20211;-63
2022/05/10 04:10:40;;;;;;;22.17;14.80;;;;;;;;;;5023564;28;20212;-63
2022/05/10 04:13:05;;;;;;;20.30;15.63;;;;;;;;;;5024085;28;20277;-63
2022/05/10 04:15:31;;;;;;;19.95;15.88;;;;;;;;;;5024500;28;20624;-63
2022/05/10 04:17:56;;;;;;;20.38;16.33;;;;;;;;;;5023429;28;20232;-63
2022/05/10 04:20:21;;;;;;;23.77;16.15;;;;;;;;;;5015815;28;20504;-63
2022/05/10 04:22:46;;;;;;;21.00;16.40;;;;;;;;;;5016658;28;20212;-63
2022/05/10 04:25:12;;;;;;;24.75;15.82;;;;;;;;;;5016324;28;20235;-63
2022/05/10 04:27:37;;;;;;;19.52;15.48;;;;;;;;;;5023584;28;20624;-63
2022/05/10 04:30:03;;;;;;;27.38;16.85;;;;;;;;;;5023483;28;20278;-63
2022/05/10 04:32:28;;;;;;;27.23;16.73;;;;;;;;;;5023471;28;20784;-63
2022/05/10 04:34:53;;;;;;;22.80;16.90;;;;;;;;;;5040426;28;20215;-63
2022/05/10 04:37:18;;;;;;;24.55;17.50;;;;;;;;;;5024126;28;20223;-63
2022/05/10 04:42:27;;;;;;;21.70;16.92;;;;;;;;;;5016849;28;20218;-61
2022/05/10 04:44:53;;;;;;;24.00;16.65;;;;;;;;;;5015695;28;20228;-61
2022/05/10 04:47:18;;;;;;;22.92;17.13;;;;;;;;;;5016585;28;20230;-62
2022/05/10 04:49:43;;;;;;;22.88;16.65;;;;;;;;;;5021397;28;20674;-60
2022/05/10 04:52:09;;;;;;;20.63;16.58;;;;;;;;;;5022582;28;20221;-63
2022/05/10 04:54:34;;;;;;;23.13;17.88;;;;;;;;;;5005863;28;20444;-63
2022/05/10 04:57:01;;;;;;;23.10;17.45;;;;;;;;;;5033003;28;20679;-62
2022/05/10 04:59:26;;;;;;;20.70;17.88;;;;;;;;;;5022844;28;20256;-62
2022/05/10 05:01:51;;;;;;;25.80;17.92;;;;;;;;;;5030728;28;20308;-62
2022/05/10 05:04:16;;;;;;;23.77;17.83;;;;;;;;;;5028514;28;20311;-62
2022/05/10 05:06:42;;;;;;;23.80;18.42;;;;;;;;;;5015431;28;20200;-62
2022/05/10 05:09:07;;;;;;;25.02;20.05;;;;;;;;;;5015572;28;20281;-63
2022/05/10 05:11:32;;;;;;;23.00;18.23;;;;;;;;;;5018909;28;20208;-62
2022/05/10 05:13:58;;;;;;;24.08;18.27;;;;;;;;;;5041620;28;20900;-62
2022/05/10 05:16:23;;;;;;;23.13;18.80;;;;;;;;;;5042154;28;20211;-62
2022/05/10 05:18:48;;;;;;;37.10;19.58;;;;;;;;;;5026869;28;20235;-63
2022/05/10 05:21:14;;;;;;;24.77;18.92;;;;;;;;;;5022230;28;20215;-63
2022/05/10 05:23:39;;;;;;;25.48;19.58;;;;;;;;;;5048357;28;20696;-63
2022/05/10 05:26:05;;;;;;;38.72;19.73;;;;;;;;;;5050751;28;20211;-63
2022/05/10 05:28:31;;;;;;;27.48;20.80;;;;;;;;;;5050392;28;20302;-62
2022/05/10 05:30:56;;;;;;;25.13;19.83;;;;;;;;;;5051820;28;20282;-62
2022/05/10 05:33:21;;;;;;;27.33;19.23;;;;;;;;;;5051420;28;20218;-63
2022/05/10 05:35:47;;;;;;;28.15;19.45;;;;;;;;;;5050680;28;20214;-63
2022/05/10 05:38:12;;;;;;;25.88;19.08;;;;;;;;;;5051138;28;20219;-62
2022/05/10 05:40:37;;;;;;;30.95;20.83;;;;;;;;;;5051787;28;20286;-63
2022/05/10 05:43:03;;;;;;;31.48;22.38;;;;;;;;;;5050198;28;20225;-63
2022/05/10 05:45:28;;;;;;;32.88;22.90;;;;;;;;;;5033448;28;20234;-62
2022/05/10 05:47:53;;;;;;;32.17;22.17;;;;;;;;;;5051416;28;20218;-64
2022/05/10 05:50:19;;;;;;;27.70;21.52;;;;;;;;;;5049668;28;20223;-64
2022/05/10 05:52:45;;;;;;;32.13;23.85;;;;;;;;;;5047050;28;20367;-64
2022/05/10 05:55:11;;;;;;;33.03;23.92;;;;;;;;;;5049126;28;20225;-61
2022/05/10 05:57:36;;;;;;;34.33;24.45;;;;;;;;;;5050253;28;20272;-63
2022/05/10 06:00:02;;;;;;;33.47;23.52;;;;;;;;;;5050254;28;20211;-64
2022/05/10 06:02:27;;;;;;;31.23;23.88;;;;;;;;;;5029933;28;20666;-64
2022/05/10 06:04:53;;;;;;;34.38;23.92;;;;;;;;;;5051868;28;20245;-64
2022/05/10 06:07:18;;;;;;;29.30;22.05;;;;;;;;;;5051204;28;20279;-63
2022/05/10 06:09:44;;;;;;;34.55;22.73;;;;;;;;;;5050931;28;20638;-62
2022/05/10 06:12:10;;;;;;;29.02;21.85;;;;;;;;;;5050833;28;20219;-64
2022/05/10 06:14:35;;;;;;;29.23;21.52;;;;;;;;;;5034092;28;20207;-65
2022/05/10 06:17:01;;;;;;;30.30;20.90;;;;;;;;;;5050749;28;20253;-65
2022/05/10 06:19:27;;;;;;;31.20;22.25;;;;;;;;;;5051979;28;20207;-64
2022/05/10 06:21:52;;;;;;;28.45;21.98;;;;;;;;;;5051509;28;20264;-64
2022/05/10 06:24:18;;;;;;;27.88;21.63;;;;;;;;;;5032333;28;20231;-64
2022/05/10 06:26:43;;;;;;;28.95;21.52;;;;;;;;;;5043576;28;20357;-64
2022/05/10 06:29:08;;;;;;;29.48;21.85;;;;;;;;;;5049392;28;20297;-63
2022/05/10 06:31:36;;;;;;;30.45;21.35;;;;;;;;;;5049287;28;20211;-63
2022/05/10 06:34:01;;;;;;;28.65;21.85;;;;;;;;;;5044044;28;20224;-64
2022/05/10 06:36:26;;;;;;;26.67;20.50;;;;;;;;;;5049217;28;20204;-64
2022/05/10 06:38:52;;;;;;;32.15;21.75;;;;;;;;;;5048454;28;20215;-64
2022/05/10 06:41:17;;;;;;;30.27;22.88;;;;;;;;;;5049259;28;20210;-64
2022/05/10 06:43:42;;;;;;;32.65;22.90;;;;;;;;;;5048768;28;20238;-65
2022/05/10 06:46:08;;;;;;;27.10;21.80;;;;;;;;;;5048339;28;20219;-65
2022/05/10 06:48:33;;;;;;;29.30;21.67;;;;;;;;;;5049630;28;20280;-65
2022/05/10 06:50:59;;;;;;;29.88;22.17;;;;;;;;;;5049784;28;20211;-64
2022/05/10 06:53:25;;;;;;;28.80;22.02;;;;;;;;;;5047647;28;20637;-64
2022/05/10 06:55:50;;;;;;;27.70;21.92;;;;;;;;;;5048981;28;20211;-64
2022/05/10 06:58:15;;;;;;;32.17;22.27;;;;;;;;;;5048444;28;20238;-65
2022/05/10 07:00:41;;;;;;;32.00;22.33;;;;;;;;;;5048848;28;20569;-65
2022/05/10 07:03:08;;;;;;;28.98;21.50;;;;;;;;;;5049359;28;20372;-64
2022/05/10 07:05:33;;;;;;;27.95;22.20;;;;;;;;;;5052751;28;20227;-64
2022/05/10 07:07:58;;;;;;;29.58;20.50;;;;;;;;;;5052033;28;20214;-64
2022/05/10 07:10:24;;;;;;;30.40;20.98;;;;;;;;;;5032326;28;20299;-64
2022/05/10 07:12:49;;;;;;;27.65;21.80;;;;;;;;;;5052353;28;20638;-64
2022/05/10 07:15:15;;;;;;;30.48;21.40;;;;;;;;;;5052317;28;20211;-64
2022/05/10 07:17:40;;;;;;;24.27;20.63;;;;;;;;;;5052401;28;20207;-64
2022/05/10 07:20:06;;;;;;;27.17;20.77;;;;;;;;;;5051691;28;20204;-64
2022/05/10 07:22:31;;;;;;;27.95;20.02;;;;;;;;;;5052831;28;20203;-64
2022/05/10 07:24:57;;;;;;;29.70;20.33;;;;;;;;;;5050853;28;20427;-65
2022/05/10 07:27:22;;;;;;;26.55;19.75;;;;;;;;;;5038329;28;20223;-65
2022/05/10 07:29:47;;;;;;;25.80;19.15;;;;;;;;;;5052346;28;20211;-64
2022/05/10 07:32:14;;;;;;;29.02;19.10;;;;;;;;;;5051777;28;20229;-64
2022/05/10 07:34:40;;;;;;;25.48;18.33;;;;;;;;;;5045094;28;20210;-65
2022/05/10 07:37:05;;;;;;;27.23;19.88;;;;;;;;;;5034284;28;20219;-64
2022/05/10 07:39:31;;;;;;;23.42;19.33;;;;;;;;;;5052264;28;20227;-64
2022/05/10 07:41:58;;;;;;;24.30;18.67;;;;;;;;;;5051307;28;20214;-63
2022/05/10 07:44:24;;;;;;;20.60;18.08;;;;;;;;;;5051587;28;20458;-64
2022/05/10 07:46:49;;;;;;;21.52;18.13;;;;;;;;;;5052438;28;20207;-65
2022/05/10 07:49:14;;;;;;;21.80;17.83;;;;;;;;;;5031077;28;20302;-65
2022/05/10 07:51:40;;;;;;;24.73;19.35;;;;;;;;;;5032754;28;20215;-65
2022/05/10 07:54:05;;;;;;;24.85;18.23;;;;;;;;;;5050572;28;20223;-64
2022/05/10 07:56:30;;;;;;;20.65;17.13;;;;;;;;;;5051337;28;20674;-65
2022/05/10 07:58:57;;;;;;;20.17;17.23;;;;;;;;;;5051742;28;20234;-65
2022/05/10 08:01:22;;;;;;;17.83;15.93;;;;;;;;;;5051308;28;20290;-64
2022/05/10 08:03:48;;;;;;;19.23;15.93;;;;;;;;;;5050780;28;20235;-63
2022/05/10 08:06:13;;;;;;;18.45;16.00;;;;;;;;;;5051558;28;20755;-64
2022/05/10 08:08:39;;;;;;;18.60;15.57;;;;;;;;;;5051593;28;20210;-64
2022/05/10 08:11:04;;;;;;;17.13;14.13;;;;;;;;;;5050724;28;20237;-63
2022/05/10 08:13:31;;;;;;;17.00;14.00;;;;;;;;;;5051602;28;20583;-64
2022/05/10 08:15:56;;;;;;;17.98;14.18;;;;;;;;;;5051119;28;20205;-65
2022/05/10 08:18:22;;;;;;;17.92;13.32;;;;;;;;;;5051062;28;20203;-65
2022/05/10 08:20:47;;;;;;;15.18;13.57;;;;;;;;;;5051888;28;20260;-64
2022/05/10 08:23:17;;;;;;;15.80;12.90;;;;;;;;;;5049988;28;20235;-64
2022/05/10 08:25:42;;;;;;;18.15;13.20;;;;;;;;;;5033495;28;20219;-65
2022/05/10 08:28:13;;;;;;;14.90;12.15;;;;;;;;;;5050975;28;20288;-64
2022/05/10 08:30:38;;;;;;;15.88;11.65;;;;;;;;;;5050417;28;20360;-64
2022/05/10 08:33:04;;;;;;;14.23;12.25;;;;;;;;;;5050820;28;20675;-65
2022/05/10 08:35:29;;;;;;;14.52;11.23;;;;;;;;;;5045664;28;20641;-65
2022/05/10 08:37:54;;;;;;;15.13;11.43;;;;;;;;;;5050470;28;20341;-65
2022/05/10 08:40:24;;;;;;;17.58;11.13;;;;;;;;;;5050688;28;20230;-65
2022/05/10 08:42:49;;;;;;;13.90;11.35;;;;;;;;;;5033061;28;20631;-65
2022/05/10 08:45:14;;;;;;;13.60;10.75;;;;;;;;;;5015329;28;20281;-65
2022/05/10 08:47:40;;;;;;;15.18;11.30;;;;;;;;;;5051047;28;20214;-64
2022/05/10 08:50:06;;;;;;;13.55;10.45;;;;;;;;;;5033070;28;20674;-64
2022/05/10 08:52:33;;;;;;;13.88;10.07;;;;;;;;;;5049932;28;20223;-64
2022/05/10 08:54:59;;;;;;;12.45;10.32;;;;;;;;;;5033145;28;20206;-65
2022/05/10 08:57:38;;;;;;;14.85;11.07;;;;;;;;;;5050115;28;20613;-64
2022/05/10 09:00:05;;;;;;;18.15;10.55;;;;;;;;;;5032056;28;20207;-64
2022/05/10 09:02:35;;;;;;;15.90;10.65;;;;;;;;;;5050164;28;20210;-64
2022/05/10 09:05:04;;;;;;;11.85;8.80;;;;;;;;;;5050179;28;20229;-64
2022/05/10 09:07:31;;;;;;;11.30;8.02;;;;;;;;;;5049963;28;20753;-65
2022/05/10 09:10:01;;;;;;;12.55;8.30;;;;;;;;;;5050738;28;20379;-65
2022/05/10 09:12:26;;;;;;;14.00;8.40;;;;;;;;;;5028351;28;20617;-64
2022/05/10 09:14:59;;;;;;;13.48;8.48;;;;;;;;;;5045902;28;20207;-65
2022/05/10 09:17:24;;;;;;;13.40;8.20;;;;;;;;;;5031991;28;20597;-65
2022/05/10 09:19:50;;;;;;;11.38;8.00;;;;;;;;;;5031955;28;20207;-65
2022/05/10 09:22:26;;;;;;;10.70;7.78;;;;;;;;;;5031808;28;20608;-64
2022/05/10 09:24:53;;;;;;;11.15;7.90;;;;;;;;;;5050470;28;20233;-63
2022/05/10 09:27:19;;;;;;;13.65;7.80;;;;;;;;;;5048732;28;20674;-63
2022/05/10 09:29:45;;;;;;;8.75;7.38;;;;;;;;;;5032615;28;20215;-64
2022/05/10 09:35:19;;;;;;;11.65;7.13;;;;;;;;;;5043414;28;20245;-64
2022/05/10 09:37:45;;;;;;;12.45;7.78;;;;;;;;;;5050185;28;20215;-65
2022/05/10 09:40:25;;;;;;;11.45;7.43;;;;;;;;;;5032123;28;20218;-64
2022/05/10 09:42:51;;;;;;;12.48;6.70;;;;;;;;;;5049810;28;20736;-64
2022/05/10 09:45:18;;;;;;;11.60;7.40;;;;;;;;;;5031861;28;20239;-64
2022/05/10 09:47:53;;;;;;;12.00;6.78;;;;;;;;;;5049264;28;20214;-65
2022/05/10 09:50:19;;;;;;;12.80;6.68;;;;;;;;;;5049847;28;20217;-64
2022/05/10 09:52:45;;;;;;;11.85;6.90;;;;;;;;;;5049792;28;20257;-65
2022/05/10 09:55:15;;;;;;;14.35;7.40;;;;;;;;;;5048912;28;20211;-64
2022/05/10 09:57:42;;;;;;;11.43;6.45;;;;;;;;;;5032050;28;20227;-65
2022/05/10 10:00:11;;;;;;;10.88;6.82;;;;;;;;;;5049561;28;20633;-65
2022/05/10 10:02:37;;;;;;;10.55;6.47;;;;;;;;;;5048605;28;20314;-64
2022/05/10 10:05:18;;;;;;;9.77;6.22;;;;;;;;;;5031630;28;20242;-64
2022/05/10 10:07:48;;;;;;;9.07;5.72;;;;;;;;;;5049868;28;20211;-65
2022/05/10 10:10:15;;;;;;;12.20;5.85;;;;;;;;;;5031015;28;20225;-64
2022/05/10 10:12:41;;;;;;;7.72;5.50;;;;;;;;;;5050869;28;20217;-64
2022/05/10 10:15:28;;;;;;;10.93;5.47;;;;;;;;;;5050015;28;20636;-65
2022/05/10 10:17:55;;;;;;;10.85;5.75;;;;;;;;;;5031053;28;20214;-64
2022/05/10 10:20:29;;;;;;;15.95;5.82;;;;;;;;;;5049272;28;20296;-64
2022/05/10 10:22:55;;;;;;;16.17;4.93;;;;;;;;;;5049232;28;20223;-64
2022/05/10 10:25:20;;;;;;;11.85;5.13;;;;;;;;;;5049453;28;20309;-64
2022/05/10 10:27:48;;;;;;;9.05;4.65;;;;;;;;;;5049747;28;20265;-64
2022/05/10 10:30:22;;;;;;;16.10;5.20;;;;;;;;;;5048205;28;20225;-64
2022/05/10 10:32:51;;;;;;;12.57;5.43;;;;;;;;;;5048332;28;20210;-64
2022/05/10 10:35:18;;;;;;;10.80;4.95;;;;;;;;;;5045939;28;20720;-65
2022/05/10 10:37:46;;;;;;;8.82;4.88;;;;;;;;;;5048398;28;20736;-65
2022/05/10 10:40:26;;;;;;;13.75;4.65;;;;;;;;;;5052646;28;20286;-65
2022/05/10 10:43:00;;;;;;;8.40;4.93;;;;;;;;;;5035390;28;20214;-64
2022/05/10 10:45:30;;;;;;;13.18;4.72;;;;;;;;;;5052075;28;20226;-64
2022/05/10 10:47:59;;;;;;;11.88;5.47;;;;;;;;;;5035035;28;20203;-64
2022/05/10 10:50:26;;;;;;;11.25;5.07;;;;;;;;;;5030922;28;20247;-64
2022/05/10 10:52:51;;;;;;;11.27;4.95;;;;;;;;;;5032311;28;20667;-64
2022/05/10 10:55:19;;;;;;;12.07;4.72;;;;;;;;;;5032545;28;20291;-65
2022/05/10 10:57:48;;;;;;;16.25;4.43;;;;;;;;;;5030048;28;20239;-65
2022/05/10 11:00:20;;;;;;;11.15;4.28;;;;;;;;;;5032975;28;20215;-64
2022/05/10 11:02:48;;;;;;;13.38;4.60;;;;;;;;;;5025341;28;20215;-65
2022/05/10 11:05:18;;;;;;;10.82;4.47;;;;;;;;;;5050648;28;20288;-64
2022/05/10 11:07:52;;;;;;;12.02;3.85;;;;;;;;;;5034647;28;20670;-64
2022/05/10 11:10:23;;;;;;;8.18;4.00;;;;;;;;;;5051888;28;20710;-65
2022/05/10 11:12:52;;;;;;;9.73;4.55;;;;;;;;;;5034614;28;20221;-65
2022/05/10 11:15:28;;;;;;;11.13;4.20;;;;;;;;;;5034174;28;20238;-65
2022/05/10 11:18:12;;;;;;;13.60;4.68;;;;;;;;;;5034614;28;20213;-65
2022/05/10 11:20:43;;;;;;;10.88;5.00;;;;;;;;;;5050972;28;20685;-64
2022/05/10 11:23:08;;;;;;;10.95;5.18;;;;;;;;;;5051778;28;20276;-64
2022/05/10 11:25:39;;;;;;;12.82;5.07;;;;;;;;;;5052712;28;20697;-65
2022/05/10 11:28:11;;;;;;;9.27;4.55;;;;;;;;;;5050923;28;20681;-65
2022/05/10 11:30:46;;;;;;;10.48;4.97;;;;;;;;;;5034236;28;20211;-64
2022/05/10 11:33:18;;;;;;;12.02;5.00;;;;;;;;;;5032845;28;20850;-64
2022/05/10 11:35:49;;;;;;;9.48;5.03;;;;;;;;;;5048264;28;20222;-64
2022/05/10 11:38:28;;;;;;;10.27;5.07;;;;;;;;;;5051512;28;20219;-64
2022/05/10 11:40:59;;;;;;;7.15;4.95;;;;;;;;;;5033250;28;20215;-64
2022/05/10 11:43:32;;;;;;;8.68;4.72;;;;;;;;;;5033568;28;20218;-65
2022/05/10 11:46:05;;;;;;;10.73;5.30;;;;;;;;;;5051700;28;20223;-65
2022/05/10 11:48:43;;;;;;;11.57;4.80;;;;;;;;;;5032826;28;20209;-65
2022/05/10 11:54:05;;;;;;;11.10;4.57;;;;;;;;;;5051569;28;20218;-65
2022/05/10 11:56:33;;;;;;;11.02;4.22;;;;;;;;;;5035992;28;20302;-64
2022/05/10 11:59:01;;;;;;;16.67;4.30;;;;;;;;;;5035579;28;20249;-62
2022/05/10 12:01:40;;;;;;;12.10;4.20;;;;;;;;;;5033018;28;20301;-64
2022/05/10 12:04:05;;;;;;;10.95;4.07;;;;;;;;;;5052997;28;20223;-64
2022/05/10 12:06:32;;;;;;;9.48;4.40;;;;;;;;;;5035701;28;20218;-64
2022/05/10 12:08:57;;;;;;;8.80;4.18;;;;;;;;;;5052564;28;20209;-63
2022/05/10 12:11:37;;;;;;;10.13;4.45;;;;;;;;;;5039288;28;20211;-63
2022/05/10 12:22:18;;;;;;;9.93;4.72;;;;;;;;;;5036699;28;20265;-62
2022/05/10 12:24:45;;;;;;;12.68;5.40;;;;;;;;;;5035046;28;20215;-62
2022/05/10 12:27:10;;;;;;;11.75;4.72;;;;;;;;;;5051832;28;20654;-62
2022/05/10 12:29:55;;;;;;;12.43;5.38;;;;;;;;;;5052187;28;20290;-63
2022/05/10 12:32:27;;;;;;;11.20;5.03;;;;;;;;;;5032941;28;20227;-63
2022/05/10 12:34:53;;;;;;;11.18;4.57;;;;;;;;;;5040935;28;20257;-63
2022/05/10 12:37:28;;;;;;;9.20;4.88;;;;;;;;;;5042896;28;20215;-62
2022/05/10 12:39:55;;;;;;;9.18;4.65;;;;;;;;;;5032865;28;20226;-63
2022/05/10 12:42:24;;;;;;;12.93;4.63;;;;;;;;;;5047070;28;20695;-63
2022/05/10 12:44:52;;;;;;;17.67;4.35;;;;;;;;;;5034647;28;20227;-63
2022/05/10 12:47:35;;;;;;;10.10;4.47;;;;;;;;;;5051852;28;20276;-63
2022/05/10 12:50:07;;;;;;;9.63;4.13;;;;;;;;;;5052090;28;20219;-63
2022/05/10 12:52:43;;;;;;;12.15;4.70;;;;;;;;;;5020145;28;20240;-62
2022/05/10 12:55:10;;;;;;;10.07;4.57;;;;;;;;;;5032120;28;20219;-63
2022/05/10 12:57:41;;;;;;;21.73;5.32;;;;;;;;;;5031405;28;20618;-63
2022/05/10 13:00:08;;;;;;;9.05;4.50;;;;;;;;;;5011391;28;20208;-63
2022/05/10 13:02:34;;;;;;;9.30;4.30;;;;;;;;;;5031502;28;20558;-62
2022/05/10 13:05:00;;;;;;;9.93;4.57;;;;;;;;;;5046998;28;20603;-62
2022/05/10 13:07:33;;;;;;;10.27;4.03;;;;;;;;;;5051171;28;20212;-62
2022/05/10 13:10:01;;;;;;;10.35;4.13;;;;;;;;;;5051799;28;20203;-63
2022/05/10 13:12:27;;;;;;;14.73;4.10;;;;;;;;;;5051103;28;20210;-63
2022/05/10 13:14:54;;;;;;;6.43;3.58;;;;;;;;;;5052231;28;20207;-63
2022/05/10 13:17:20;;;;;;;12.85;3.83;;;;;;;;;;5037502;28;20207;-63
2022/05/10 13:19:45;;;;;;;8.68;3.83;;;;;;;;;;5051243;28;20221;-62
2022/05/10 13:22:14;;;;;;;8.73;3.55;;;;;;;;;;5051512;28;20211;-63
2022/05/10 13:24:42;;;;;;;8.45;4.20;;;;;;;;;;5051792;28;20637;-63
2022/05/10 13:27:07;;;;;;;8.60;3.65;;;;;;;;;;5032710;28;20570;-63
2022/05/10 13:29:42;;;;;;;12.25;4.38;;;;;;;;;;5052795;28;20207;-63
2022/05/10 13:32:11;;;;;;;10.70;4.22;;;;;;;;;;5051469;28;20606;-63
2022/05/10 13:34:47;;;;;;;8.82;4.00;;;;;;;;;;5041207;28;20218;-62
2022/05/10 13:37:20;;;;;;;6.80;3.60;;;;;;;;;;5042647;28;20207;-62
2022/05/10 13:39:45;;;;;;;12.98;4.03;;;;;;;;;;5050657;28;20635;-63
2022/05/10 13:42:11;;;;;;;15.10;3.75;;;;;;;;;;5051240;28;20287;-63
2022/05/10 13:44:37;;;;;;;8.95;4.25;;;;;;;;;;5051999;28;20337;-64
2022/05/10 13:47:03;;;;;;;8.05;4.45;;;;;;;;;;5032365;28;20277;-63
2022/05/10 13:49:31;;;;;;;12.93;4.60;;;;;;;;;;5051688;28;20233;-63
2022/05/10 13:51:58;;;;;;;11.50;4.15;;;;;;;;;;5026529;28;20651;-63
2022/05/10 13:54:28;;;;;;;7.55;4.30;;;;;;;;;;5030591;28;20208;-63
2022/05/10 13:56:54;;;;;;;8.13;4.70;;;;;;;;;;5031523;28;20200;-63
2022/05/10 13:59:30;;;;;;;10.65;4.45;;;;;;;;;;5013973;28;20246;-63
2022/05/10 14:01:55;;;;;;;10.90;4.38;;;;;;;;;;5038434;28;20553;-63
2022/05/10 14:04:21;;;;;;;9.50;5.03;;;;;;;;;;5032012;28;20230;-63
2022/05/10 14:06:49;;;;;;;13.63;4.60;;;;;;;;;;5031950;28;20212;-63
2022/05/10 14:09:15;;;;;;;9.73;4.35;;;;;;;;;;5014033;28;20230;-63
2022/05/10 14:11:41;;;;;;;11.57;4.80;;;;;;;;;;5051356;28;20306;-64
2022/05/10 14:14:10;;;;;;;10.80;4.72;;;;;;;;;;5037110;28;20206;-63
2022/05/10 14:16:36;;;;;;;14.13;7.30;;;;;;;;;;5036967;28;20215;-63
2022/05/10 14:19:02;;;;;;;11.75;4.78;;;;;;;;;;5058041;28;20207;-63
2022/05/10 14:21:28;;;;;;;10.00;5.05;;;;;;;;;;5055593;28;20650;-63
2022/05/10 14:23:54;;;;;;;9.30;5.07;;;;;;;;;;5036745;28;20203;-63
2022/05/10 14:26:33;;;;;;;12.63;5.82;;;;;;;;;;5036953;28;20600;-62
2022/05/10 14:29:07;;;;;;;11.23;4.53;;;;;;;;;;5054312;28;20661;-62
2022/05/10 14:31:34;;;;;;;12.07;5.25;;;;;;;;;;5035429;28;20218;-63
2022/05/10 14:34:02;;;;;;;9.90;5.10;;;;;;;;;;5047204;28;20270;-63
2022/05/10 14:36:37;;;;;;;15.98;5.55;;;;;;;;;;5053070;28;20203;-63
2022/05/10 14:39:04;;;;;;;7.65;5.60;;;;;;;;;;5036458;28;20293;-63
2022/05/10 14:41:35;;;;;;;10.10;5.53;;;;;;;;;;5053621;28;20223;-63
2022/05/10 14:44:20;;;;;;;11.18;5.75;;;;;;;;;;5054582;28;20203;-63
2022/05/10 14:46:47;;;;;;;9.48;5.82;;;;;;;;;;5040761;28;20231;-63
2022/05/10 14:49:12;;;;;;;14.20;5.57;;;;;;;;;;5036429;28;20230;-63
2022/05/10 14:51:41;;;;;;;13.05;5.00;;;;;;;;;;5054209;28;20229;-62